sensor_id;sensor_type;location;lat;lon;timestamp;P1;durP1;ratioP1;P2;durP2;ratioP2
3843;SDS011;1937;51.444;6.484;2023-05-07T00:01:27;32.17;;;10.83;;
3843;SDS011;1937;51.444;6.484;2023-05-07T00:03:54;34.67;;;10.53;;
3843;SDS011;1937;51.444;6.484;2023-05-07T00:06:21;32.57;;;10.07;;
3843;SDS011;1937;51.444;6.484;2023-05-07T00:08:47;34.03;;;9.93;;
3843;SDS011;1937;51.444;6.484;2023-05-07T00:11:14;31.30;;;9.43;;
3843;SDS011;1937;51.444;6.484;2023-05-07T00:13:40;33.10;;;9.30;;
3843;SDS011;1937;51.444;6.484;2023-05-07T00:16:07;34.63;;;9.23;;
3843;SDS011;1937;51.444;6.484;2023-05-07T00:18:35;33.73;;;9.97;;
3843;SDS011;1937;51.444;6.484;2023-05-07T00:21:01;33.10;;;9.33;;
3843;SDS011;1937;51.444;6.484;2023-05-07T00:23:28;32.40;;;9.63;;
3843;SDS011;1937;51.444;6.484;2023-05-07T00:25:55;32.70;;;7.60;;
3843;SDS011;1937;51.444;6.484;2023-05-07T00:28:22;34.03;;;9.83;;
3843;SDS011;1937;51.444;6.484;2023-05-07T00:30:48;35.70;;;9.87;;
3843;SDS011;1937;51.444;6.484;2023-05-07T00:33:15;33.23;;;9.50;;
3843;SDS011;1937;51.444;6.484;2023-05-07T00:35:43;34.50;;;10.00;;
3843;SDS011;1937;51.444;6.484;2023-05-07T00:38:10;33.00;;;9.40;;
3843;SDS011;1937;51.444;6.484;2023-05-07T00:40:36;33.13;;;9.43;;
3843;SDS011;1937;51.444;6.484;2023-05-07T00:43:03;31.37;;;8.83;;
3843;SDS011;1937;51.444;6.484;2023-05-07T00:45:29;35.63;;;10.00;;
3843;SDS011;1937;51.444;6.484;2023-05-07T00:47:57;35.10;;;9.00;;
3843;SDS011;1937;51.444;6.484;2023-05-07T00:50:25;38.70;;;9.60;;
3843;SDS011;1937;51.444;6.484;2023-05-07T00:52:53;36.80;;;10.77;;
3843;SDS011;1937;51.444;6.484;2023-05-07T00:55:21;36.77;;;9.97;;
3843;SDS011;1937;51.444;6.484;2023-05-07T00:57:48;39.53;;;11.20;;
3843;SDS011;1937;51.444;6.484;2023-05-07T01:00:16;37.63;;;10.20;;
3843;SDS011;1937;51.444;6.484;2023-05-07T01:02:43;35.33;;;9.90;;
3843;SDS011;1937;51.444;6.484;2023-05-07T01:05:12;34.90;;;9.80;;
3843;SDS011;1937;51.444;6.484;2023-05-07T01:07:40;37.33;;;11.07;;
3843;SDS011;1937;51.444;6.484;2023-05-07T01:10:09;33.87;;;9.33;;
3843;SDS011;1937;51.444;6.484;2023-05-07T01:12:37;38.30;;;10.17;;
3843;SDS011;1937;51.444;6.484;2023-05-07T01:15:07;34.73;;;10.00;;
3843;SDS011;1937;51.444;6.484;2023-05-07T01:17:35;37.23;;;9.80;;
3843;SDS011;1937;51.444;6.484;2023-05-07T01:20:03;37.40;;;10.87;;
3843;SDS011;1937;51.444;6.484;2023-05-07T01:22:33;36.23;;;9.57;;
3843;SDS011;1937;51.444;6.484;2023-05-07T01:25:01;37.37;;;10.40;;
3843;SDS011;1937;51.444;6.484;2023-05-07T01:27:29;39.93;;;11.07;;
3843;SDS011;1937;51.444;6.484;2023-05-07T01:29:56;38.27;;;11.90;;
3843;SDS011;1937;51.444;6.484;2023-05-07T01:32:23;36.97;;;10.70;;
3843;SDS011;1937;51.444;6.484;2023-05-07T01:34:55;36.53;;;9.47;;
3843;SDS011;1937;51.444;6.484;2023-05-07T01:37:23;35.57;;;10.77;;
3843;SDS011;1937;51.444;6.484;2023-05-07T01:39:52;41.20;;;11.33;;
3843;SDS011;1937;51.444;6.484;2023-05-07T01:42:20;36.83;;;11.27;;
3843;SDS011;1937;51.444;6.484;2023-05-07T01:44:47;35.53;;;9.70;;
3843;SDS011;1937;51.444;6.484;2023-05-07T01:47:14;36.40;;;10.77;;
3843;SDS011;1937;51.444;6.484;2023-05-07T01:49:42;42.60;;;12.33;;
3843;SDS011;1937;51.444;6.484;2023-05-07T01:52:09;39.30;;;12.87;;
3843;SDS011;1937;51.444;6.484;2023-05-07T01:54:36;35.40;;;10.30;;
3843;SDS011;1937;51.444;6.484;2023-05-07T01:57:04;36.40;;;10.90;;
3843;SDS011;1937;51.444;6.484;2023-05-07T01:59:31;38.13;;;10.70;;
3843;SDS011;1937;51.444;6.484;2023-05-07T02:01:57;42.87;;;10.27;;
3843;SDS011;1937;51.444;6.484;2023-05-07T02:04:24;45.30;;;11.07;;
3843;SDS011;1937;51.444;6.484;2023-05-07T02:06:50;37.60;;;10.20;;
3843;SDS011;1937;51.444;6.484;2023-05-07T02:09:17;35.20;;;10.33;;
3843;SDS011;1937;51.444;6.484;2023-05-07T02:11:44;41.27;;;10.47;;
3843;SDS011;1937;51.444;6.484;2023-05-07T02:14:12;38.87;;;11.50;;
3843;SDS011;1937;51.444;6.484;2023-05-07T02:16:39;35.50;;;12.43;;
3843;SDS011;1937;51.444;6.484;2023-05-07T02:19:05;35.67;;;12.43;;
3843;SDS011;1937;51.444;6.484;2023-05-07T02:21:32;34.20;;;13.10;;
3843;SDS011;1937;51.444;6.484;2023-05-07T02:23:59;34.93;;;13.33;;
3843;SDS011;1937;51.444;6.484;2023-05-07T02:26:25;36.67;;;13.50;;
3843;SDS011;1937;51.444;6.484;2023-05-07T02:28:52;37.43;;;13.53;;
3843;SDS011;1937;51.444;6.484;2023-05-07T02:31:20;35.77;;;12.90;;
3843;SDS011;1937;51.444;6.484;2023-05-07T02:33:46;32.63;;;11.30;;
3843;SDS011;1937;51.444;6.484;2023-05-07T02:36:13;34.13;;;10.73;;
3843;SDS011;1937;51.444;6.484;2023-05-07T02:38:39;33.10;;;10.93;;
3843;SDS011;1937;51.444;6.484;2023-05-07T02:41:06;36.80;;;12.70;;
3843;SDS011;1937;51.444;6.484;2023-05-07T02:43:32;36.73;;;13.20;;
3843;SDS011;1937;51.444;6.484;2023-05-07T02:46:02;34.43;;;10.97;;
3843;SDS011;1937;51.444;6.484;2023-05-07T02:48:31;38.07;;;13.53;;
3843;SDS011;1937;51.444;6.484;2023-05-07T02:50:58;35.80;;;11.33;;
3843;SDS011;1937;51.444;6.484;2023-05-07T02:53:25;37.87;;;12.43;;
3843;SDS011;1937;51.444;6.484;2023-05-07T02:55:52;38.33;;;11.73;;
3843;SDS011;1937;51.444;6.484;2023-05-07T02:58:19;35.97;;;12.20;;
3843;SDS011;1937;51.444;6.484;2023-05-07T03:00:46;41.90;;;14.80;;
3843;SDS011;1937;51.444;6.484;2023-05-07T03:03:12;35.87;;;13.20;;
3843;SDS011;1937;51.444;6.484;2023-05-07T03:05:40;38.73;;;14.47;;
3843;SDS011;1937;51.444;6.484;2023-05-07T03:08:08;38.57;;;14.37;;
3843;SDS011;1937;51.444;6.484;2023-05-07T03:10:35;36.13;;;14.93;;
3843;SDS011;1937;51.444;6.484;2023-05-07T03:13:01;39.80;;;14.77;;
3843;SDS011;1937;51.444;6.484;2023-05-07T03:15:28;42.00;;;15.40;;
3843;SDS011;1937;51.444;6.484;2023-05-07T03:17:55;43.97;;;15.50;;
3843;SDS011;1937;51.444;6.484;2023-05-07T03:20:22;42.13;;;15.70;;
3843;SDS011;1937;51.444;6.484;2023-05-07T03:22:50;39.20;;;14.73;;
3843;SDS011;1937;51.444;6.484;2023-05-07T03:25:16;41.73;;;15.13;;
3843;SDS011;1937;51.444;6.484;2023-05-07T03:27:43;46.00;;;14.50;;
3843;SDS011;1937;51.444;6.484;2023-05-07T03:30:10;42.10;;;15.70;;
3843;SDS011;1937;51.444;6.484;2023-05-07T03:32:37;41.90;;;13.83;;
3843;SDS011;1937;51.444;6.484;2023-05-07T03:35:04;37.60;;;13.23;;
3843;SDS011;1937;51.444;6.484;2023-05-07T03:37:32;42.50;;;15.37;;
3843;SDS011;1937;51.444;6.484;2023-05-07T03:40:00;41.90;;;14.63;;
3843;SDS011;1937;51.444;6.484;2023-05-07T03:42:27;46.53;;;16.10;;
3843;SDS011;1937;51.444;6.484;2023-05-07T03:44:54;41.10;;;15.87;;
3843;SDS011;1937;51.444;6.484;2023-05-07T03:47:21;43.57;;;15.97;;
3843;SDS011;1937;51.444;6.484;2023-05-07T03:49:47;42.90;;;14.47;;
3843;SDS011;1937;51.444;6.484;2023-05-07T03:52:15;45.60;;;15.77;;
3843;SDS011;1937;51.444;6.484;2023-05-07T03:54:47;39.60;;;15.30;;
3843;SDS011;1937;51.444;6.484;2023-05-07T03:57:15;45.87;;;15.00;;
3843;SDS011;1937;51.444;6.484;2023-05-07T03:59:41;43.37;;;16.57;;
3843;SDS011;1937;51.444;6.484;2023-05-07T04:02:08;43.30;;;16.43;;
3843;SDS011;1937;51.444;6.484;2023-05-07T04:04:35;43.33;;;15.10;;
3843;SDS011;1937;51.444;6.484;2023-05-07T04:07:01;39.80;;;15.33;;
3843;SDS011;1937;51.444;6.484;2023-05-07T04:09:28;43.10;;;15.80;;
3843;SDS011;1937;51.444;6.484;2023-05-07T04:11:54;40.07;;;15.37;;
3843;SDS011;1937;51.444;6.484;2023-05-07T04:14:22;41.07;;;13.83;;
3843;SDS011;1937;51.444;6.484;2023-05-07T04:16:49;40.07;;;14.90;;
3843;SDS011;1937;51.444;6.484;2023-05-07T04:19:15;41.73;;;15.63;;
3843;SDS011;1937;51.444;6.484;2023-05-07T04:21:42;43.30;;;17.37;;
3843;SDS011;1937;51.444;6.484;2023-05-07T04:24:09;46.93;;;16.30;;
3843;SDS011;1937;51.444;6.484;2023-05-07T04:26:35;45.50;;;15.90;;
3843;SDS011;1937;51.444;6.484;2023-05-07T04:29:02;42.50;;;15.97;;
3843;SDS011;1937;51.444;6.484;2023-05-07T04:31:30;39.47;;;15.17;;
3843;SDS011;1937;51.444;6.484;2023-05-07T04:33:56;41.20;;;16.20;;
3843;SDS011;1937;51.444;6.484;2023-05-07T04:36:23;45.30;;;16.23;;
3843;SDS011;1937;51.444;6.484;2023-05-07T04:38:52;42.20;;;15.83;;
3843;SDS011;1937;51.444;6.484;2023-05-07T04:41:19;47.47;;;16.37;;
3843;SDS011;1937;51.444;6.484;2023-05-07T04:43:46;42.57;;;16.27;;
3843;SDS011;1937;51.444;6.484;2023-05-07T04:46:12;39.37;;;14.30;;
3843;SDS011;1937;51.444;6.484;2023-05-07T04:48:40;43.80;;;16.13;;
3843;SDS011;1937;51.444;6.484;2023-05-07T04:51:07;46.13;;;17.17;;
3843;SDS011;1937;51.444;6.484;2023-05-07T04:53:33;42.40;;;15.50;;
3843;SDS011;1937;51.444;6.484;2023-05-07T04:56:00;41.57;;;16.10;;
3843;SDS011;1937;51.444;6.484;2023-05-07T04:58:27;39.40;;;14.40;;
3843;SDS011;1937;51.444;6.484;2023-05-07T05:00:56;40.13;;;14.50;;
3843;SDS011;1937;51.444;6.484;2023-05-07T05:03:23;38.67;;;13.63;;
3843;SDS011;1937;51.444;6.484;2023-05-07T05:05:51;45.77;;;15.97;;
3843;SDS011;1937;51.444;6.484;2023-05-07T05:08:18;47.97;;;17.17;;
3843;SDS011;1937;51.444;6.484;2023-05-07T05:10:45;44.03;;;17.30;;
3843;SDS011;1937;51.444;6.484;2023-05-07T05:13:13;45.83;;;16.53;;
3843;SDS011;1937;51.444;6.484;2023-05-07T05:15:40;47.10;;;16.13;;
3843;SDS011;1937;51.444;6.484;2023-05-07T05:18:06;47.87;;;14.80;;
3843;SDS011;1937;51.444;6.484;2023-05-07T05:20:33;47.63;;;16.03;;
3843;SDS011;1937;51.444;6.484;2023-05-07T05:23:01;43.03;;;14.97;;
3843;SDS011;1937;51.444;6.484;2023-05-07T05:25:27;45.70;;;16.37;;
3843;SDS011;1937;51.444;6.484;2023-05-07T05:27:54;45.27;;;16.50;;
3843;SDS011;1937;51.444;6.484;2023-05-07T05:30:21;44.07;;;15.80;;
3843;SDS011;1937;51.444;6.484;2023-05-07T05:32:48;42.40;;;15.73;;
3843;SDS011;1937;51.444;6.484;2023-05-07T05:35:14;40.33;;;15.47;;
3843;SDS011;1937;51.444;6.484;2023-05-07T05:37:41;40.73;;;13.63;;
3843;SDS011;1937;51.444;6.484;2023-05-07T05:40:10;39.37;;;12.10;;
3843;SDS011;1937;51.444;6.484;2023-05-07T05:42:37;37.37;;;12.10;;
3843;SDS011;1937;51.444;6.484;2023-05-07T05:45:04;45.10;;;13.20;;
3843;SDS011;1937;51.444;6.484;2023-05-07T05:47:31;38.40;;;12.20;;
3843;SDS011;1937;51.444;6.484;2023-05-07T05:49:58;40.93;;;12.03;;
3843;SDS011;1937;51.444;6.484;2023-05-07T05:52:24;39.40;;;12.10;;
3843;SDS011;1937;51.444;6.484;2023-05-07T05:54:51;38.63;;;11.57;;
3843;SDS011;1937;51.444;6.484;2023-05-07T05:57:19;40.33;;;11.83;;
3843;SDS011;1937;51.444;6.484;2023-05-07T05:59:46;44.30;;;14.20;;
3843;SDS011;1937;51.444;6.484;2023-05-07T06:02:13;44.27;;;11.90;;
3843;SDS011;1937;51.444;6.484;2023-05-07T06:04:39;43.70;;;11.50;;
3843;SDS011;1937;51.444;6.484;2023-05-07T06:07:07;39.97;;;9.70;;
3843;SDS011;1937;51.444;6.484;2023-05-07T06:09:34;45.77;;;11.13;;
3843;SDS011;1937;51.444;6.484;2023-05-07T06:12:00;44.57;;;10.10;;
3843;SDS011;1937;51.444;6.484;2023-05-07T06:14:28;46.10;;;11.03;;
3843;SDS011;1937;51.444;6.484;2023-05-07T06:16:55;49.77;;;11.30;;
3843;SDS011;1937;51.444;6.484;2023-05-07T06:19:22;46.67;;;10.27;;
3843;SDS011;1937;51.444;6.484;2023-05-07T06:21:49;52.03;;;14.33;;
3843;SDS011;1937;51.444;6.484;2023-05-07T06:24:15;53.97;;;12.67;;
3843;SDS011;1937;51.444;6.484;2023-05-07T06:26:42;51.67;;;13.10;;
3843;SDS011;1937;51.444;6.484;2023-05-07T06:29:08;51.13;;;14.73;;
3843;SDS011;1937;51.444;6.484;2023-05-07T06:31:36;52.90;;;13.77;;
3843;SDS011;1937;51.444;6.484;2023-05-07T06:34:03;51.50;;;12.17;;
3843;SDS011;1937;51.444;6.484;2023-05-07T06:36:30;53.90;;;13.50;;
3843;SDS011;1937;51.444;6.484;2023-05-07T06:38:56;51.47;;;13.00;;
3843;SDS011;1937;51.444;6.484;2023-05-07T06:41:23;53.70;;;12.97;;
3843;SDS011;1937;51.444;6.484;2023-05-07T06:43:50;52.00;;;11.27;;
3843;SDS011;1937;51.444;6.484;2023-05-07T06:46:17;53.63;;;15.57;;
3843;SDS011;1937;51.444;6.484;2023-05-07T06:48:45;55.40;;;12.60;;
3843;SDS011;1937;51.444;6.484;2023-05-07T06:51:12;54.93;;;12.23;;
3843;SDS011;1937;51.444;6.484;2023-05-07T06:53:38;52.93;;;12.60;;
3843;SDS011;1937;51.444;6.484;2023-05-07T06:56:05;51.30;;;11.80;;
3843;SDS011;1937;51.444;6.484;2023-05-07T06:58:32;53.77;;;11.37;;
3843;SDS011;1937;51.444;6.484;2023-05-07T07:00:59;52.30;;;11.53;;
3843;SDS011;1937;51.444;6.484;2023-05-07T07:03:26;56.37;;;11.73;;
3843;SDS011;1937;51.444;6.484;2023-05-07T07:05:54;57.03;;;11.20;;
3843;SDS011;1937;51.444;6.484;2023-05-07T07:08:21;52.47;;;11.00;;
3843;SDS011;1937;51.444;6.484;2023-05-07T07:10:48;56.33;;;11.70;;
3843;SDS011;1937;51.444;6.484;2023-05-07T07:13:14;53.73;;;11.40;;
3843;SDS011;1937;51.444;6.484;2023-05-07T07:15:41;52.30;;;10.50;;
3843;SDS011;1937;51.444;6.484;2023-05-07T07:18:10;53.27;;;11.07;;
3843;SDS011;1937;51.444;6.484;2023-05-07T07:20:36;53.60;;;10.30;;
3843;SDS011;1937;51.444;6.484;2023-05-07T07:23:04;54.87;;;11.07;;
3843;SDS011;1937;51.444;6.484;2023-05-07T07:25:31;59.03;;;11.20;;
3843;SDS011;1937;51.444;6.484;2023-05-07T07:27:57;56.53;;;10.10;;
3843;SDS011;1937;51.444;6.484;2023-05-07T07:30:24;58.00;;;10.17;;
3843;SDS011;1937;51.444;6.484;2023-05-07T07:32:51;56.13;;;9.87;;
3843;SDS011;1937;51.444;6.484;2023-05-07T07:35:18;56.13;;;8.83;;
3843;SDS011;1937;51.444;6.484;2023-05-07T07:37:45;56.17;;;8.10;;
3843;SDS011;1937;51.444;6.484;2023-05-07T07:40:13;55.23;;;8.30;;
3843;SDS011;1937;51.444;6.484;2023-05-07T07:42:40;51.50;;;7.17;;
3843;SDS011;1937;51.444;6.484;2023-05-07T07:45:07;57.50;;;8.30;;
3843;SDS011;1937;51.444;6.484;2023-05-07T07:47:34;52.10;;;7.40;;
3843;SDS011;1937;51.444;6.484;2023-05-07T07:50:01;54.23;;;8.10;;
3843;SDS011;1937;51.444;6.484;2023-05-07T07:52:27;61.17;;;14.73;;
3843;SDS011;1937;51.444;6.484;2023-05-07T07:54:57;53.73;;;12.33;;
3843;SDS011;1937;51.444;6.484;2023-05-07T07:57:25;54.90;;;17.70;;
3843;SDS011;1937;51.444;6.484;2023-05-07T07:59:52;57.60;;;21.03;;
3843;SDS011;1937;51.444;6.484;2023-05-07T08:02:18;56.73;;;20.80;;
3843;SDS011;1937;51.444;6.484;2023-05-07T08:04:45;52.90;;;19.30;;
3843;SDS011;1937;51.444;6.484;2023-05-07T08:07:12;51.03;;;19.77;;
3843;SDS011;1937;51.444;6.484;2023-05-07T08:09:40;52.70;;;21.07;;
3843;SDS011;1937;51.444;6.484;2023-05-07T08:12:06;54.03;;;27.10;;
3843;SDS011;1937;51.444;6.484;2023-05-07T08:14:35;56.83;;;21.10;;
3843;SDS011;1937;51.444;6.484;2023-05-07T08:17:02;53.57;;;22.97;;
3843;SDS011;1937;51.444;6.484;2023-05-07T08:19:29;51.23;;;20.03;;
3843;SDS011;1937;51.444;6.484;2023-05-07T08:21:55;49.57;;;21.20;;
3843;SDS011;1937;51.444;6.484;2023-05-07T08:24:22;46.37;;;18.67;;
3843;SDS011;1937;51.444;6.484;2023-05-07T08:26:49;46.23;;;18.97;;
3843;SDS011;1937;51.444;6.484;2023-05-07T08:29:15;47.17;;;20.70;;
3843;SDS011;1937;51.444;6.484;2023-05-07T08:31:43;49.67;;;24.13;;
3843;SDS011;1937;51.444;6.484;2023-05-07T08:34:10;48.70;;;22.60;;
3843;SDS011;1937;51.444;6.484;2023-05-07T08:36:36;50.53;;;19.63;;
3843;SDS011;1937;51.444;6.484;2023-05-07T08:39:03;51.53;;;21.43;;
3843;SDS011;1937;51.444;6.484;2023-05-07T08:41:30;43.53;;;16.47;;
3843;SDS011;1937;51.444;6.484;2023-05-07T08:43:57;42.10;;;16.20;;
3843;SDS011;1937;51.444;6.484;2023-05-07T08:46:25;45.03;;;17.40;;
3843;SDS011;1937;51.444;6.484;2023-05-07T08:48:56;40.50;;;15.13;;
3843;SDS011;1937;51.444;6.484;2023-05-07T08:51:22;40.07;;;15.90;;
3843;SDS011;1937;51.444;6.484;2023-05-07T08:53:49;40.47;;;15.23;;
3843;SDS011;1937;51.444;6.484;2023-05-07T08:56:16;36.93;;;12.70;;
3843;SDS011;1937;51.444;6.484;2023-05-07T08:58:43;40.47;;;12.77;;
3843;SDS011;1937;51.444;6.484;2023-05-07T09:01:14;36.17;;;11.43;;
3843;SDS011;1937;51.444;6.484;2023-05-07T09:03:42;39.33;;;12.70;;
3843;SDS011;1937;51.444;6.484;2023-05-07T09:06:13;39.30;;;15.80;;
3843;SDS011;1937;51.444;6.484;2023-05-07T09:08:40;42.40;;;14.70;;
3843;SDS011;1937;51.444;6.484;2023-05-07T09:11:07;39.50;;;14.70;;
3843;SDS011;1937;51.444;6.484;2023-05-07T09:13:34;40.20;;;14.83;;
3843;SDS011;1937;51.444;6.484;2023-05-07T09:16:09;40.57;;;12.87;;
3843;SDS011;1937;51.444;6.484;2023-05-07T09:18:40;37.97;;;13.03;;
3843;SDS011;1937;51.444;6.484;2023-05-07T09:21:09;38.10;;;11.53;;
3843;SDS011;1937;51.444;6.484;2023-05-07T09:23:37;36.07;;;10.80;;
3843;SDS011;1937;51.444;6.484;2023-05-07T09:26:04;34.43;;;10.53;;
3843;SDS011;1937;51.444;6.484;2023-05-07T09:28:33;33.43;;;9.97;;
3843;SDS011;1937;51.444;6.484;2023-05-07T09:31:00;32.83;;;9.37;;
3843;SDS011;1937;51.444;6.484;2023-05-07T09:33:28;30.10;;;8.30;;
3843;SDS011;1937;51.444;6.484;2023-05-07T09:35:55;30.70;;;8.10;;
3843;SDS011;1937;51.444;6.484;2023-05-07T09:38:21;31.77;;;8.10;;
3843;SDS011;1937;51.444;6.484;2023-05-07T09:40:52;30.47;;;8.90;;
3843;SDS011;1937;51.444;6.484;2023-05-07T09:43:31;29.17;;;7.50;;
3843;SDS011;1937;51.444;6.484;2023-05-07T09:45:59;25.30;;;6.17;;
3843;SDS011;1937;51.444;6.484;2023-05-07T09:48:29;23.13;;;5.73;;
3843;SDS011;1937;51.444;6.484;2023-05-07T09:50:56;24.10;;;6.43;;
3843;SDS011;1937;51.444;6.484;2023-05-07T09:53:28;23.00;;;6.00;;
3843;SDS011;1937;51.444;6.484;2023-05-07T09:55:57;27.37;;;6.23;;
3843;SDS011;1937;51.444;6.484;2023-05-07T09:58:25;26.20;;;5.77;;
3843;SDS011;1937;51.444;6.484;2023-05-07T10:00:52;26.93;;;7.57;;
3843;SDS011;1937;51.444;6.484;2023-05-07T10:03:19;24.97;;;5.70;;
3843;SDS011;1937;51.444;6.484;2023-05-07T10:05:48;23.03;;;6.03;;
3843;SDS011;1937;51.444;6.484;2023-05-07T10:08:16;28.20;;;8.23;;
3843;SDS011;1937;51.444;6.484;2023-05-07T10:10:45;27.30;;;7.90;;
3843;SDS011;1937;51.444;6.484;2023-05-07T10:13:13;27.07;;;8.00;;
3843;SDS011;1937;51.444;6.484;2023-05-07T10:15:40;29.10;;;7.57;;
3843;SDS011;1937;51.444;6.484;2023-05-07T10:18:07;29.33;;;8.07;;
3843;SDS011;1937;51.444;6.484;2023-05-07T10:20:35;28.57;;;7.50;;
3843;SDS011;1937;51.444;6.484;2023-05-07T10:23:03;25.40;;;8.10;;
3843;SDS011;1937;51.444;6.484;2023-05-07T10:25:31;32.97;;;9.00;;
3843;SDS011;1937;51.444;6.484;2023-05-07T10:27:59;36.50;;;11.00;;
3843;SDS011;1937;51.444;6.484;2023-05-07T10:30:34;34.13;;;8.53;;
3843;SDS011;1937;51.444;6.484;2023-05-07T10:33:11;36.23;;;10.60;;
3843;SDS011;1937;51.444;6.484;2023-05-07T10:35:41;34.80;;;8.93;;
3843;SDS011;1937;51.444;6.484;2023-05-07T10:38:10;31.50;;;9.07;;
3843;SDS011;1937;51.444;6.484;2023-05-07T10:40:37;28.17;;;7.27;;
3843;SDS011;1937;51.444;6.484;2023-05-07T10:43:04;28.20;;;7.30;;
3843;SDS011;1937;51.444;6.484;2023-05-07T10:45:33;31.40;;;8.60;;
3843;SDS011;1937;51.444;6.484;2023-05-07T10:48:05;25.63;;;6.70;;
3843;SDS011;1937;51.444;6.484;2023-05-07T10:50:32;28.20;;;6.77;;
3843;SDS011;1937;51.444;6.484;2023-05-07T10:55:51;26.23;;;6.83;;
3843;SDS011;1937;51.444;6.484;2023-05-07T10:58:38;28.80;;;7.10;;
3843;SDS011;1937;51.444;6.484;2023-05-07T11:01:06;27.60;;;6.53;;
3843;SDS011;1937;51.444;6.484;2023-05-07T11:03:33;27.00;;;5.70;;
3843;SDS011;1937;51.444;6.484;2023-05-07T11:06:09;29.37;;;7.53;;
3843;SDS011;1937;51.444;6.484;2023-05-07T11:08:52;32.00;;;6.70;;
3843;SDS011;1937;51.444;6.484;2023-05-07T11:11:26;24.83;;;5.60;;
3843;SDS011;1937;51.444;6.484;2023-05-07T11:14:10;30.53;;;7.20;;
3843;SDS011;1937;51.444;6.484;2023-05-07T11:16:39;27.77;;;6.70;;
3843;SDS011;1937;51.444;6.484;2023-05-07T11:19:07;29.20;;;6.40;;
3843;SDS011;1937;51.444;6.484;2023-05-07T11:21:34;30.83;;;6.53;;
3843;SDS011;1937;51.444;6.484;2023-05-07T11:24:02;38.70;;;12.40;;
3843;SDS011;1937;51.444;6.484;2023-05-07T11:26:31;37.00;;;8.90;;
3843;SDS011;1937;51.444;6.484;2023-05-07T11:29:10;33.10;;;8.77;;
3843;SDS011;1937;51.444;6.484;2023-05-07T11:31:38;32.93;;;8.83;;
3843;SDS011;1937;51.444;6.484;2023-05-07T11:34:06;22.73;;;5.10;;
3843;SDS011;1937;51.444;6.484;2023-05-07T11:36:35;28.90;;;7.37;;
3843;SDS011;1937;51.444;6.484;2023-05-07T11:39:22;25.77;;;6.20;;
3843;SDS011;1937;51.444;6.484;2023-05-07T11:41:49;29.40;;;5.80;;
3843;SDS011;1937;51.444;6.484;2023-05-07T11:44:16;31.30;;;7.20;;
3843;SDS011;1937;51.444;6.484;2023-05-07T11:46:44;29.40;;;7.67;;
3843;SDS011;1937;51.444;6.484;2023-05-07T11:49:11;31.47;;;8.07;;
3843;SDS011;1937;51.444;6.484;2023-05-07T11:51:37;31.00;;;6.20;;
3843;SDS011;1937;51.444;6.484;2023-05-07T11:54:05;29.70;;;7.67;;
3843;SDS011;1937;51.444;6.484;2023-05-07T11:56:33;31.50;;;8.03;;
3843;SDS011;1937;51.444;6.484;2023-05-07T11:59:01;35.53;;;9.47;;
3843;SDS011;1937;51.444;6.484;2023-05-07T12:01:28;33.00;;;8.53;;
3843;SDS011;1937;51.444;6.484;2023-05-07T12:03:56;38.97;;;10.30;;
3843;SDS011;1937;51.444;6.484;2023-05-07T12:06:23;41.43;;;12.40;;
3843;SDS011;1937;51.444;6.484;2023-05-07T12:08:49;44.67;;;17.73;;
3843;SDS011;1937;51.444;6.484;2023-05-07T12:11:16;38.50;;;11.80;;
3843;SDS011;1937;51.444;6.484;2023-05-07T12:13:49;37.63;;;10.70;;
3843;SDS011;1937;51.444;6.484;2023-05-07T12:16:15;36.10;;;10.70;;
3843;SDS011;1937;51.444;6.484;2023-05-07T12:18:42;35.13;;;10.00;;
3843;SDS011;1937;51.444;6.484;2023-05-07T12:21:11;35.27;;;9.20;;
3843;SDS011;1937;51.444;6.484;2023-05-07T12:23:39;35.23;;;8.73;;
3843;SDS011;1937;51.444;6.484;2023-05-07T12:26:06;32.00;;;8.13;;
3843;SDS011;1937;51.444;6.484;2023-05-07T12:28:36;29.23;;;6.60;;
3843;SDS011;1937;51.444;6.484;2023-05-07T12:31:04;33.67;;;8.47;;
3843;SDS011;1937;51.444;6.484;2023-05-07T12:33:31;34.00;;;9.33;;
3843;SDS011;1937;51.444;6.484;2023-05-07T12:35:58;34.57;;;8.83;;
3843;SDS011;1937;51.444;6.484;2023-05-07T12:38:34;32.97;;;7.40;;
3843;SDS011;1937;51.444;6.484;2023-05-07T12:41:01;28.47;;;6.40;;
3843;SDS011;1937;51.444;6.484;2023-05-07T12:43:30;26.60;;;6.97;;
3843;SDS011;1937;51.444;6.484;2023-05-07T12:45:57;25.40;;;6.70;;
3843;SDS011;1937;51.444;6.484;2023-05-07T12:48:27;23.93;;;5.97;;
3843;SDS011;1937;51.444;6.484;2023-05-07T12:50:54;27.33;;;7.27;;
3843;SDS011;1937;51.444;6.484;2023-05-07T12:53:22;27.40;;;6.57;;
3843;SDS011;1937;51.444;6.484;2023-05-07T12:55:53;25.07;;;7.37;;
3843;SDS011;1937;51.444;6.484;2023-05-07T12:58:22;24.60;;;6.53;;
3843;SDS011;1937;51.444;6.484;2023-05-07T13:00:51;25.10;;;6.40;;
3843;SDS011;1937;51.444;6.484;2023-05-07T13:03:21;21.87;;;5.27;;
3843;SDS011;1937;51.444;6.484;2023-05-07T13:05:49;27.73;;;6.93;;
3843;SDS011;1937;51.444;6.484;2023-05-07T13:08:26;28.03;;;6.20;;
3843;SDS011;1937;51.444;6.484;2023-05-07T13:10:55;23.60;;;5.73;;
3843;SDS011;1937;51.444;6.484;2023-05-07T13:13:22;27.33;;;6.33;;
3843;SDS011;1937;51.444;6.484;2023-05-07T13:15:50;25.87;;;6.90;;
3843;SDS011;1937;51.444;6.484;2023-05-07T13:18:16;24.53;;;6.70;;
3843;SDS011;1937;51.444;6.484;2023-05-07T13:20:43;26.97;;;7.27;;
3843;SDS011;1937;51.444;6.484;2023-05-07T13:23:10;29.63;;;7.07;;
3843;SDS011;1937;51.444;6.484;2023-05-07T13:25:37;27.63;;;7.90;;
3843;SDS011;1937;51.444;6.484;2023-05-07T13:28:05;25.10;;;6.60;;
3843;SDS011;1937;51.444;6.484;2023-05-07T13:30:31;24.83;;;6.30;;
3843;SDS011;1937;51.444;6.484;2023-05-07T13:32:58;26.13;;;6.33;;
3843;SDS011;1937;51.444;6.484;2023-05-07T13:35:24;24.70;;;6.20;;
3843;SDS011;1937;51.444;6.484;2023-05-07T13:37:51;25.20;;;5.47;;
3843;SDS011;1937;51.444;6.484;2023-05-07T13:40:19;23.00;;;5.70;;
3843;SDS011;1937;51.444;6.484;2023-05-07T13:42:46;22.67;;;5.50;;
3843;SDS011;1937;51.444;6.484;2023-05-07T13:45:14;24.40;;;6.10;;
3843;SDS011;1937;51.444;6.484;2023-05-07T13:47:41;22.03;;;4.83;;
3843;SDS011;1937;51.444;6.484;2023-05-07T13:50:09;26.53;;;5.73;;
3843;SDS011;1937;51.444;6.484;2023-05-07T13:52:36;24.70;;;5.33;;
3843;SDS011;1937;51.444;6.484;2023-05-07T13:55:03;21.40;;;5.07;;
3843;SDS011;1937;51.444;6.484;2023-05-07T13:57:30;23.13;;;5.80;;
3843;SDS011;1937;51.444;6.484;2023-05-07T13:59:57;23.80;;;5.20;;
3843;SDS011;1937;51.444;6.484;2023-05-07T14:02:25;21.97;;;5.07;;
3843;SDS011;1937;51.444;6.484;2023-05-07T14:04:51;23.50;;;4.97;;
3843;SDS011;1937;51.444;6.484;2023-05-07T14:07:18;22.50;;;6.00;;
3843;SDS011;1937;51.444;6.484;2023-05-07T14:09:44;23.90;;;5.73;;
3843;SDS011;1937;51.444;6.484;2023-05-07T14:12:11;24.60;;;6.17;;
3843;SDS011;1937;51.444;6.484;2023-05-07T14:14:38;24.37;;;5.77;;
3843;SDS011;1937;51.444;6.484;2023-05-07T14:17:04;23.67;;;5.40;;
3843;SDS011;1937;51.444;6.484;2023-05-07T14:19:33;23.80;;;6.00;;
3843;SDS011;1937;51.444;6.484;2023-05-07T14:21:59;23.63;;;5.53;;
3843;SDS011;1937;51.444;6.484;2023-05-07T14:24:26;24.80;;;5.80;;
3843;SDS011;1937;51.444;6.484;2023-05-07T14:26:53;27.13;;;5.60;;
3843;SDS011;1937;51.444;6.484;2023-05-07T14:29:19;25.77;;;5.73;;
3843;SDS011;1937;51.444;6.484;2023-05-07T14:31:47;25.43;;;5.73;;
3843;SDS011;1937;51.444;6.484;2023-05-07T14:34:13;28.90;;;7.30;;
3843;SDS011;1937;51.444;6.484;2023-05-07T14:36:41;29.53;;;7.03;;
3843;SDS011;1937;51.444;6.484;2023-05-07T14:39:08;24.30;;;5.70;;
3843;SDS011;1937;51.444;6.484;2023-05-07T14:41:35;26.23;;;6.60;;
3843;SDS011;1937;51.444;6.484;2023-05-07T14:44:02;29.67;;;7.30;;
3843;SDS011;1937;51.444;6.484;2023-05-07T14:46:29;27.57;;;7.67;;
3843;SDS011;1937;51.444;6.484;2023-05-07T14:48:56;26.07;;;6.27;;
3843;SDS011;1937;51.444;6.484;2023-05-07T14:51:23;29.20;;;7.40;;
3843;SDS011;1937;51.444;6.484;2023-05-07T14:53:52;26.13;;;6.53;;
3843;SDS011;1937;51.444;6.484;2023-05-07T14:56:18;28.57;;;7.10;;
3843;SDS011;1937;51.444;6.484;2023-05-07T14:58:46;27.40;;;7.27;;